Time;durP1;ratioP1;P1;durP2;ratioP2;P2;SDS_P1;SDS_P2;PMS_P1;PMS_P2;Temp;Humidity;BMP_temperature;BMP_pressure;BME280_temperature;BME280_humidity;BME280_pressure;Samples;Min_cycle;Max_cycle;Signal;HPM_P1;HPM_P2
2020/12/29 21:56:39;;;;;;;46.20;21.80;;;;;;;6.00;88.09;100099.97;1786269;77;22504;-70
2020/12/29 21:59:06;;;;;;;42.43;21.25;;;;;;;5.95;88.01;100098.80;1748320;81;21165;-68
2020/12/29 22:01:33;;;;;;;42.43;20.05;;;;;;;5.92;88.06;100095.92;1749011;82;21445;-70
2020/12/29 22:15:33;;;;;;;37.70;19.60;;;;;;;6.50;87.30;100099.22;1862522;74;27913;-66
2020/12/29 22:18:01;;;;;;;40.00;19.95;;;;;;;6.43;87.12;100098.23;1826948;78;21148;-66
2020/12/29 22:20:28;;;;;;;38.02;18.75;;;;;;;6.34;87.15;100099.65;1820229;78;21742;-65
2020/12/29 22:22:56;;;;;;;38.73;18.70;;;;;;;6.28;87.19;100102.23;1818775;79;21369;-65
2020/12/29 22:25:24;;;;;;;43.68;18.32;;;;;;;6.23;87.25;100112.80;1818770;78;21819;-66
2020/12/29 22:27:52;;;;;;;41.23;18.67;;;;;;;6.17;87.28;100118.94;1818549;79;21866;-66
2020/12/29 22:30:20;;;;;;;41.63;20.35;;;;;;;6.11;87.32;100115.56;1819931;78;21194;-66
2020/12/29 22:32:48;;;;;;;42.23;19.37;;;;;;;6.04;87.43;100108.11;1826653;78;21363;-66
2020/12/29 22:35:16;;;;;;;29.23;13.98;;;;;;;6.01;87.55;100115.77;1826793;78;21363;-66
2020/12/29 22:37:44;;;;;;;24.18;11.80;;;;;;;5.99;87.70;100115.95;1826999;78;21372;-66
2020/12/29 22:40:12;;;;;;;23.90;11.73;;;;;;;6.00;87.87;100110.84;1799095;78;21195;-67
2020/12/29 22:42:39;;;;;;;26.45;13.22;;;;;;;6.00;87.95;100105.92;1826614;78;21736;-66
2020/12/29 22:45:07;;;;;;;26.65;13.72;;;;;;;5.99;88.05;100105.07;1826772;78;21101;-66
2020/12/29 22:47:37;;;;;;;31.20;14.80;;;;;;;5.99;88.19;100102.35;1824606;78;21113;-66
2020/12/29 22:50:04;;;;;;;26.42;13.13;;;;;;;6.00;88.33;100109.48;1826474;77;21109;-66
2020/12/29 22:52:32;;;;;;;26.25;12.47;;;;;;;6.03;88.45;100105.06;1826438;77;21375;-66
2020/12/29 22:55:01;;;;;;;26.60;12.93;;;;;;;6.07;88.53;100114.22;1826592;78;21128;-66
2020/12/29 22:57:30;;;;;;;26.50;12.68;;;;;;;6.07;88.52;100106.06;1823529;78;21158;-67
2020/12/29 22:59:58;;;;;;;30.02;15.18;;;;;;;6.08;88.62;100099.59;1817158;78;21188;-66
2020/12/29 23:02:26;;;;;;;28.47;14.10;;;;;;;6.09;88.72;100095.86;1817779;78;21333;-66
2020/12/29 23:04:53;;;;;;;24.87;13.13;;;;;;;6.11;88.73;100106.05;1790072;79;21463;-66
2020/12/29 23:07:20;;;;;;;25.52;13.32;;;;;;;6.11;88.71;100104.69;1790218;79;21917;-66
2020/12/29 23:09:48;;;;;;;27.60;14.20;;;;;;;6.11;88.75;100105.53;1790281;79;21227;-66
2020/12/29 23:12:15;;;;;;;28.02;13.83;;;;;;;6.12;88.81;100100.95;1794138;78;21188;-67
2020/12/29 23:14:43;;;;;;;28.50;13.55;;;;;;;6.12;88.84;100114.03;1820020;78;21309;-66
2020/12/29 23:17:10;;;;;;;24.18;11.90;;;;;;;6.11;88.84;100115.56;1819759;78;21908;-65
2020/12/29 23:19:38;;;;;;;24.80;10.90;;;;;;;6.12;88.90;100119.98;1819943;78;21114;-66
2020/12/29 23:22:05;;;;;;;22.70;11.15;;;;;;;6.14;88.95;100114.70;1784312;80;21906;-66
2020/12/29 23:24:32;;;;;;;18.82;10.40;;;;;;;6.16;88.98;100114.53;1784421;80;21161;-66
2020/12/29 23:27:00;;;;;;;20.75;11.57;;;;;;;6.17;88.99;100117.58;1781116;80;21376;-66
2020/12/29 23:29:27;;;;;;;19.73;9.80;;;;;;;6.13;88.95;100121.17;1762410;81;21424;-65
2020/12/29 23:31:55;;;;;;;24.23;11.22;;;;;;;6.12;89.03;100121.34;1754532;81;21287;-67
2020/12/29 23:34:22;;;;;;;22.65;11.10;;;;;;;6.13;89.10;100125.25;1754551;81;21802;-65
2020/12/29 23:36:49;;;;;;;21.85;12.00;;;;;;;6.13;89.10;100129.84;1754548;81;21232;-66
2020/12/29 23:39:17;;;;;;;23.57;12.33;;;;;;;6.11;89.10;100131.89;1766992;81;21152;-66
2020/12/29 23:41:47;;;;;;;23.10;11.50;;;;;;;6.08;89.09;100133.59;1768953;81;21179;-66
2020/12/29 23:44:15;;;;;;;22.02;11.00;;;;;;;6.08;89.12;100134.45;1768752;81;21504;-66
2020/12/29 23:46:49;;;;;;;24.57;12.25;;;;;;;6.08;89.15;100133.59;1768817;81;21869;-65
2020/12/29 23:49:17;;;;;;;25.20;12.58;;;;;;;6.08;89.13;100131.73;1768651;81;21422;-65
2020/12/29 23:51:44;;;;;;;24.87;12.98;;;;;;;6.10;89.21;100131.55;1768594;81;21231;-66
2020/12/29 23:54:12;;;;;;;26.97;12.68;;;;;;;6.12;89.31;100132.22;1768760;81;21931;-65
2020/12/29 23:56:41;;;;;;;25.35;12.78;;;;;;;6.14;89.31;100147.86;1769097;80;21563;-65
2020/12/29 23:59:08;;;;;;;25.45;13.10;;;;;;;6.15;89.31;100154.48;1773515;80;21265;-66
